KBGR/BGR METAR and TAF weather

Enter ICAO airport designator
Station Type Date Time Source
KBGR METAR 2022/07/01 00:53 UTC NOAA

KBGR 010053Z 27003KT 10SM FEW120 BKN250 17/13 A3009 RMK AO2 SLP187 T01720128


Station Type Date Time Source
KBGR Decoded METAR 2022/07/01 00:53 UTC NOAA

BANGOR INT'L AIRPORT, ME, United States (KBGR) 44-48N 068-49W 57M
Jun 30, 2022 - 08:53 PM EDT / 2022.07.01 0053 UTC
Wind: from the W (270 degrees) at 3 MPH (3 KT):0
Visibility: 10 mile(s):0
Sky conditions: mostly cloudy
Temperature: 63.0 F (17.2 C)
Dew Point: 55.0 F (12.8 C)
Relative Humidity: 75%
Pressure (altimeter): 30.09 in. Hg (1018 hPa)
ob: KBGR 010053Z 27003KT 10SM FEW120 BKN250 17/13 A3009 RMK AO2 SLP187 T01720128
cycle: 1

Station Type Date Time Source
KBGR TAF 2022/06/30 18:22 UTC NOAA

TAF KBGR 301720Z 3018/0118 33007KT P6SM SCT050
FM010000 00000KT P6SM FEW100
FM011400 19008G17KT P6SM FEW090

Example: see airport list